sensor_id;sensor_type;location;lat;lon;timestamp;pressure;altitude;pressure_sealevel;temperature;humidity
64602;BME280;51013;42.630;23.192;2022-08-01T00:02:20;92377.09;;;15.65;80.03
64602;BME280;51013;42.630;23.192;2022-08-01T00:04:47;92396.56;;;15.80;79.53
64602;BME280;51013;42.630;23.192;2022-08-01T00:07:13;92326.97;;;15.35;79.51
64602;BME280;51013;42.630;23.192;2022-08-01T00:09:40;92382.81;;;15.71;79.46
64602;BME280;51013;42.630;23.192;2022-08-01T00:12:07;92354.63;;;15.45;79.33
64602;BME280;51013;42.630;23.192;2022-08-01T00:14:34;92382.78;;;15.63;79.43
64602;BME280;51013;42.630;23.192;2022-08-01T00:17:01;92402.19;;;15.75;78.83
64602;BME280;51013;42.630;23.192;2022-08-01T00:19:30;92372.84;;;15.50;78.96
64602;BME280;51013;42.630;23.192;2022-08-01T00:21:57;92353.09;;;15.40;79.14
64602;BME280;51013;42.630;23.192;2022-08-01T00:24:24;92361.78;;;15.40;79.20
64602;BME280;51013;42.630;23.192;2022-08-01T00:26:52;92388.41;;;15.58;79.67
64602;BME280;51013;42.630;23.192;2022-08-01T00:29:19;92314.91;;;14.96;79.11
64602;BME280;51013;42.630;23.192;2022-08-01T00:31:45;92390.56;;;15.46;79.62
64602;BME280;51013;42.630;23.192;2022-08-01T00:34:12;92386.47;;;15.52;79.41
64602;BME280;51013;42.630;23.192;2022-08-01T00:36:41;92386.81;;;15.50;79.60
64602;BME280;51013;42.630;23.192;2022-08-01T00:39:08;92345.34;;;15.20;79.24
64602;BME280;51013;42.630;23.192;2022-08-01T00:41:35;92281.16;;;14.82;79.23
64602;BME280;51013;42.630;23.192;2022-08-01T00:44:04;92379.19;;;15.41;79.50
64602;BME280;51013;42.630;23.192;2022-08-01T00:46:31;92337.72;;;15.12;79.57
64602;BME280;51013;42.630;23.192;2022-08-01T00:48:58;92207.69;;;14.24;79.42
64602;BME280;51013;42.630;23.192;2022-08-01T00:51:26;92360.16;;;15.25;79.09
64602;BME280;51013;42.630;23.192;2022-08-01T00:53:56;92385.56;;;15.33;79.38
64602;BME280;51013;42.630;23.192;2022-08-01T00:56:25;92374.97;;;15.33;79.29
64602;BME280;51013;42.630;23.192;2022-08-01T00:58:54;92368.88;;;15.29;79.27
64602;BME280;51013;42.630;23.192;2022-08-01T01:01:22;92311.84;;;14.91;79.10
64602;BME280;51013;42.630;23.192;2022-08-01T01:03:50;92315.56;;;14.86;79.24
64602;BME280;51013;42.630;23.192;2022-08-01T01:06:28;92367.69;;;15.23;79.92
64602;BME280;51013;42.630;23.192;2022-08-01T01:09:15;92372.19;;;15.19;79.66
64602;BME280;51013;42.630;23.192;2022-08-01T01:11:48;92376.31;;;15.16;79.65
64602;BME280;51013;42.630;23.192;2022-08-01T01:14:30;92358.75;;;14.97;79.20
64602;BME280;51013;42.630;23.192;2022-08-01T01:17:00;92364.44;;;14.99;79.59
64602;BME280;51013;42.630;23.192;2022-08-01T01:19:30;92298.97;;;14.52;79.96
64602;BME280;51013;42.630;23.192;2022-08-01T01:22:19;92370.47;;;15.00;79.95
64602;BME280;51013;42.630;23.192;2022-08-01T01:25:07;92298.91;;;14.48;80.54
64602;BME280;51013;42.630;23.192;2022-08-01T01:27:51;92343.00;;;14.71;80.16
64602;BME280;51013;42.630;23.192;2022-08-01T01:30:28;92321.63;;;14.53;79.98
64602;BME280;51013;42.630;23.192;2022-08-01T01:33:01;92342.19;;;14.67;80.83
64602;BME280;51013;42.630;23.192;2022-08-01T01:35:33;92354.47;;;14.86;80.41
64602;BME280;51013;42.630;23.192;2022-08-01T01:38:04;92302.28;;;14.45;80.45
64602;BME280;51013;42.630;23.192;2022-08-01T01:40:34;92355.16;;;14.79;80.75
64602;BME280;51013;42.630;23.192;2022-08-01T01:43:02;92355.97;;;14.83;80.30
64602;BME280;51013;42.630;23.192;2022-08-01T01:45:31;92350.63;;;14.79;80.42
64602;BME280;51013;42.630;23.192;2022-08-01T01:47:58;92297.75;;;14.46;79.67
64602;BME280;51013;42.630;23.192;2022-08-01T01:50:29;92318.34;;;14.63;79.98
64602;BME280;51013;42.630;23.192;2022-08-01T01:52:58;92337.38;;;14.76;80.23
64602;BME280;51013;42.630;23.192;2022-08-01T01:55:28;92344.94;;;14.77;80.11
64602;BME280;51013;42.630;23.192;2022-08-01T01:57:57;92280.56;;;14.29;79.79
64602;BME280;51013;42.630;23.192;2022-08-01T02:00:25;92349.31;;;14.62;80.27
64602;BME280;51013;42.630;23.192;2022-08-01T02:02:55;92174.06;;;13.53;80.23
64602;BME280;51013;42.630;23.192;2022-08-01T02:05:24;92345.94;;;14.62;79.81
64602;BME280;51013;42.630;23.192;2022-08-01T02:07:53;92336.97;;;14.43;80.43
64602;BME280;51013;42.630;23.192;2022-08-01T02:10:22;92351.81;;;14.52;80.50
64602;BME280;51013;42.630;23.192;2022-08-01T02:12:50;92349.88;;;14.49;80.33
64602;BME280;51013;42.630;23.192;2022-08-01T02:15:18;92342.25;;;14.43;80.89
64602;BME280;51013;42.630;23.192;2022-08-01T02:17:48;92283.22;;;13.98;80.38
64602;BME280;51013;42.630;23.192;2022-08-01T02:20:17;92344.88;;;14.40;80.47
64602;BME280;51013;42.630;23.192;2022-08-01T02:22:47;92309.06;;;14.12;80.68
64602;BME280;51013;42.630;23.192;2022-08-01T02:25:20;92280.81;;;13.86;80.42
64602;BME280;51013;42.630;23.192;2022-08-01T02:27:53;92327.66;;;14.19;80.73
64602;BME280;51013;42.630;23.192;2022-08-01T02:30:24;92279.59;;;13.80;80.43
64602;BME280;51013;42.630;23.192;2022-08-01T02:32:58;92345.38;;;14.19;80.76
64602;BME280;51013;42.630;23.192;2022-08-01T02:35:32;92333.06;;;14.00;80.87
64602;BME280;51013;42.630;23.192;2022-08-01T02:38:01;92311.34;;;13.83;81.34
64602;BME280;51013;42.630;23.192;2022-08-01T02:40:32;92345.56;;;14.03;80.86
64602;BME280;51013;42.630;23.192;2022-08-01T02:43:02;92240.34;;;13.48;80.73
64602;BME280;51013;42.630;23.192;2022-08-01T02:45:32;92262.31;;;13.56;80.61
64602;BME280;51013;42.630;23.192;2022-08-01T02:48:03;92335.06;;;14.10;80.75
64602;BME280;51013;42.630;23.192;2022-08-01T02:50:34;92333.34;;;13.95;81.01
64602;BME280;51013;42.630;23.192;2022-08-01T02:53:04;92336.19;;;13.79;81.48
64602;BME280;51013;42.630;23.192;2022-08-01T02:55:34;92312.56;;;13.63;82.13
64602;BME280;51013;42.630;23.192;2022-08-01T02:58:02;92337.63;;;13.76;81.38
64602;BME280;51013;42.630;23.192;2022-08-01T03:00:32;92296.28;;;13.57;81.46
64602;BME280;51013;42.630;23.192;2022-08-01T03:03:01;92330.09;;;13.75;80.81
64602;BME280;51013;42.630;23.192;2022-08-01T03:05:33;92283.94;;;13.38;80.23
64602;BME280;51013;42.630;23.192;2022-08-01T03:08:01;92327.84;;;13.77;80.70
64602;BME280;51013;42.630;23.192;2022-08-01T03:10:29;92297.66;;;13.25;82.08
64602;BME280;51013;42.630;23.192;2022-08-01T03:12:58;92315.47;;;13.31;81.14
64602;BME280;51013;42.630;23.192;2022-08-01T03:15:27;92314.06;;;13.14;82.80
64602;BME280;51013;42.630;23.192;2022-08-01T03:17:57;92276.09;;;12.96;82.20
64602;BME280;51013;42.630;23.192;2022-08-01T03:20:27;92313.88;;;13.03;82.75
64602;BME280;51013;42.630;23.192;2022-08-01T03:22:57;92329.31;;;13.25;82.67
64602;BME280;51013;42.630;23.192;2022-08-01T03:25:25;92299.59;;;13.05;82.17
64602;BME280;51013;42.630;23.192;2022-08-01T03:27:58;92315.28;;;13.20;82.37
64602;BME280;51013;42.630;23.192;2022-08-01T03:30:27;92334.47;;;13.40;82.14
64602;BME280;51013;42.630;23.192;2022-08-01T03:32:55;92312.31;;;13.22;81.98
64602;BME280;51013;42.630;23.192;2022-08-01T03:35:26;92332.53;;;13.37;81.60
64602;BME280;51013;42.630;23.192;2022-08-01T03:37:58;92332.13;;;13.35;81.87
64602;BME280;51013;42.630;23.192;2022-08-01T03:40:31;92341.69;;;13.43;81.75
64602;BME280;51013;42.630;23.192;2022-08-01T03:43:05;92318.00;;;13.24;82.00
64602;BME280;51013;42.630;23.192;2022-08-01T03:45:34;92343.50;;;13.39;81.54
64602;BME280;51013;42.630;23.192;2022-08-01T03:48:09;92353.66;;;13.37;81.62
64602;BME280;51013;42.630;23.192;2022-08-01T03:50:39;92344.41;;;13.28;81.51
64602;BME280;51013;42.630;23.192;2022-08-01T03:53:10;92339.38;;;13.19;82.94
64602;BME280;51013;42.630;23.192;2022-08-01T03:55:39;92342.56;;;13.28;82.21
64602;BME280;51013;42.630;23.192;2022-08-01T03:58:09;92346.91;;;13.40;82.11
64602;BME280;51013;42.630;23.192;2022-08-01T04:00:37;92290.22;;;13.07;82.07
64602;BME280;51013;42.630;23.192;2022-08-01T04:03:06;92330.66;;;13.38;82.27
64602;BME280;51013;42.630;23.192;2022-08-01T04:05:34;92283.88;;;13.12;81.69
64602;BME280;51013;42.630;23.192;2022-08-01T04:08:01;92305.84;;;13.19;82.28
64602;BME280;51013;42.630;23.192;2022-08-01T04:10:30;92325.03;;;13.39;82.90
64602;BME280;51013;42.630;23.192;2022-08-01T04:12:57;92299.28;;;13.10;nan
64602;BME280;51013;42.630;23.192;2022-08-01T04:15:24;92335.13;;;13.34;82.62
64602;BME280;51013;42.630;23.192;2022-08-01T04:17:50;92301.56;;;13.11;83.80
64602;BME280;51013;42.630;23.192;2022-08-01T04:20:19;92271.69;;;13.03;83.55
64602;BME280;51013;42.630;23.192;2022-08-01T04:22:46;92342.63;;;13.55;83.42
64602;BME280;51013;42.630;23.192;2022-08-01T04:25:16;92339.31;;;13.61;83.21
64602;BME280;51013;42.630;23.192;2022-08-01T04:27:47;92342.00;;;13.65;84.06
64602;BME280;51013;42.630;23.192;2022-08-01T04:30:16;92269.69;;;12.97;84.99
64602;BME280;51013;42.630;23.192;2022-08-01T04:32:44;92344.13;;;13.56;85.59
64602;BME280;51013;42.630;23.192;2022-08-01T04:35:15;92334.50;;;13.67;84.25
64602;BME280;51013;42.630;23.192;2022-08-01T04:37:44;92345.19;;;13.78;84.80
64602;BME280;51013;42.630;23.192;2022-08-01T04:40:14;92344.53;;;13.85;85.62
64602;BME280;51013;42.630;23.192;2022-08-01T04:42:41;92293.97;;;13.56;85.13
64602;BME280;51013;42.630;23.192;2022-08-01T04:45:13;92321.50;;;13.81;84.49
64602;BME280;51013;42.630;23.192;2022-08-01T04:47:41;92226.78;;;13.23;84.34
64602;BME280;51013;42.630;23.192;2022-08-01T04:50:10;92340.94;;;13.96;85.02
64602;BME280;51013;42.630;23.192;2022-08-01T04:52:38;92340.75;;;14.12;85.38
64602;BME280;51013;42.630;23.192;2022-08-01T04:55:08;92285.00;;;13.91;85.95
64602;BME280;51013;42.630;23.192;2022-08-01T04:57:37;92308.66;;;14.10;86.24
64602;BME280;51013;42.630;23.192;2022-08-01T05:00:05;92263.75;;;13.80;85.83
64602;BME280;51013;42.630;23.192;2022-08-01T05:02:33;92317.97;;;14.31;85.73
64602;BME280;51013;42.630;23.192;2022-08-01T05:05:00;92288.84;;;14.27;84.98
64602;BME280;51013;42.630;23.192;2022-08-01T05:07:27;92177.97;;;13.63;87.47
64602;BME280;51013;42.630;23.192;2022-08-01T05:09:58;92330.63;;;14.78;87.61
64602;BME280;51013;42.630;23.192;2022-08-01T05:12:31;92335.69;;;14.98;86.96
64602;BME280;51013;42.630;23.192;2022-08-01T05:14:58;92328.59;;;15.06;83.70
64602;BME280;51013;42.630;23.192;2022-08-01T05:17:25;92327.19;;;15.15;84.15
64602;BME280;51013;42.630;23.192;2022-08-01T05:19:53;92324.19;;;15.20;84.77
64602;BME280;51013;42.630;23.192;2022-08-01T05:22:20;92292.31;;;15.06;85.35
64602;BME280;51013;42.630;23.192;2022-08-01T05:24:47;92114.91;;;13.92;83.51
64602;BME280;51013;42.630;23.192;2022-08-01T05:27:14;92335.03;;;15.49;83.22
64602;BME280;51013;42.630;23.192;2022-08-01T05:29:41;92331.31;;;15.57;83.58
64602;BME280;51013;42.630;23.192;2022-08-01T05:32:09;92314.25;;;15.51;81.97
64602;BME280;51013;42.630;23.192;2022-08-01T05:34:36;92336.75;;;15.79;81.88
64602;BME280;51013;42.630;23.192;2022-08-01T05:37:04;92302.25;;;15.68;81.27
64602;BME280;51013;42.630;23.192;2022-08-01T05:39:32;92285.91;;;15.59;78.69
64602;BME280;51013;42.630;23.192;2022-08-01T05:41:59;92329.38;;;16.13;76.34
64602;BME280;51013;42.630;23.192;2022-08-01T05:44:26;92321.03;;;16.11;75.25
64602;BME280;51013;42.630;23.192;2022-08-01T05:46:53;92292.63;;;16.01;73.41
64602;BME280;51013;42.630;23.192;2022-08-01T05:49:20;92312.84;;;16.34;69.54
64602;BME280;51013;42.630;23.192;2022-08-01T05:51:47;92270.69;;;16.11;71.57
64602;BME280;51013;42.630;23.192;2022-08-01T05:54:15;92336.41;;;16.57;74.68
64602;BME280;51013;42.630;23.192;2022-08-01T05:56:42;92299.97;;;16.43;72.64
64602;BME280;51013;42.630;23.192;2022-08-01T05:59:10;92342.13;;;16.74;72.94
64602;BME280;51013;42.630;23.192;2022-08-01T06:01:37;92312.97;;;16.67;73.06
64602;BME280;51013;42.630;23.192;2022-08-01T06:04:04;92334.66;;;16.97;67.92
64602;BME280;51013;42.630;23.192;2022-08-01T06:06:31;92339.59;;;17.17;66.75
64602;BME280;51013;42.630;23.192;2022-08-01T06:08:58;92325.97;;;17.11;67.25
64602;BME280;51013;42.630;23.192;2022-08-01T06:11:26;92336.22;;;17.38;63.38
64602;BME280;51013;42.630;23.192;2022-08-01T06:13:53;92333.94;;;17.47;65.19
64602;BME280;51013;42.630;23.192;2022-08-01T06:16:20;92349.50;;;17.45;66.90
64602;BME280;51013;42.630;23.192;2022-08-01T06:18:46;92304.38;;;17.24;66.04
64602;BME280;51013;42.630;23.192;2022-08-01T06:21:13;92350.63;;;17.69;60.77
64602;BME280;51013;42.630;23.192;2022-08-01T06:23:40;92266.81;;;17.29;60.26
64602;BME280;51013;42.630;23.192;2022-08-01T06:26:08;92330.16;;;17.80;58.43
64602;BME280;51013;42.630;23.192;2022-08-01T06:28:37;92338.13;;;17.98;57.97
64602;BME280;51013;42.630;23.192;2022-08-01T06:31:04;92340.00;;;18.05;59.67
64602;BME280;51013;42.630;23.192;2022-08-01T06:33:31;92339.59;;;18.17;56.69
64602;BME280;51013;42.630;23.192;2022-08-01T06:35:58;92336.53;;;18.22;55.39
64602;BME280;51013;42.630;23.192;2022-08-01T06:38:26;92338.44;;;18.29;55.07
64602;BME280;51013;42.630;23.192;2022-08-01T06:40:53;92329.66;;;18.39;53.93
64602;BME280;51013;42.630;23.192;2022-08-01T06:43:20;92302.69;;;18.34;57.69
64602;BME280;51013;42.630;23.192;2022-08-01T06:45:51;92245.09;;;17.98;58.06
64602;BME280;51013;42.630;23.192;2022-08-01T06:48:18;92288.25;;;18.35;56.17
64602;BME280;51013;42.630;23.192;2022-08-01T06:50:45;92301.47;;;18.56;56.31
64602;BME280;51013;42.630;23.192;2022-08-01T06:53:12;92307.81;;;18.77;56.00
64602;BME280;51013;42.630;23.192;2022-08-01T06:55:39;92257.06;;;18.46;56.23
64602;BME280;51013;42.630;23.192;2022-08-01T06:58:06;92299.78;;;18.91;54.71
64602;BME280;51013;42.630;23.192;2022-08-01T07:00:33;92288.06;;;18.78;56.07
64602;BME280;51013;42.630;23.192;2022-08-01T07:03:01;92198.28;;;18.26;55.62
64602;BME280;51013;42.630;23.192;2022-08-01T07:05:28;92270.59;;;18.80;54.66
64602;BME280;51013;42.630;23.192;2022-08-01T07:07:56;92273.22;;;18.88;55.73
64602;BME280;51013;42.630;23.192;2022-08-01T07:10:23;92262.22;;;18.78;56.87
64602;BME280;51013;42.630;23.192;2022-08-01T07:12:50;92306.13;;;19.12;55.06
64602;BME280;51013;42.630;23.192;2022-08-01T07:15:17;92241.31;;;18.73;54.59
64602;BME280;51013;42.630;23.192;2022-08-01T07:17:45;92295.81;;;19.17;54.63
64602;BME280;51013;42.630;23.192;2022-08-01T07:20:14;92315.91;;;19.29;53.46
64602;BME280;51013;42.630;23.192;2022-08-01T07:22:40;92319.28;;;19.37;55.66
64602;BME280;51013;42.630;23.192;2022-08-01T07:25:08;92297.63;;;19.35;56.73
64602;BME280;51013;42.630;23.192;2022-08-01T07:27:36;92272.56;;;19.25;53.34
64602;BME280;51013;42.630;23.192;2022-08-01T07:30:03;92311.94;;;19.52;54.88
64602;BME280;51013;42.630;23.192;2022-08-01T07:32:31;92314.91;;;19.61;56.31
64602;BME280;51013;42.630;23.192;2022-08-01T07:34:59;92313.38;;;19.64;55.18
64602;BME280;51013;42.630;23.192;2022-08-01T07:37:27;92185.81;;;18.83;55.14
64602;BME280;51013;42.630;23.192;2022-08-01T07:39:54;92295.09;;;19.62;57.87
64602;BME280;51013;42.630;23.192;2022-08-01T07:42:21;92309.47;;;19.79;56.78
64602;BME280;51013;42.630;23.192;2022-08-01T07:44:48;92312.38;;;19.92;55.19
64602;BME280;51013;42.630;23.192;2022-08-01T07:47:15;92309.38;;;19.86;54.25
64602;BME280;51013;42.630;23.192;2022-08-01T07:49:42;92303.06;;;19.66;53.89
64602;BME280;51013;42.630;23.192;2022-08-01T07:52:08;92290.88;;;19.72;56.50
64602;BME280;51013;42.630;23.192;2022-08-01T07:54:37;92300.28;;;19.84;55.50
64602;BME280;51013;42.630;23.192;2022-08-01T07:57:04;92306.66;;;19.93;54.58
64602;BME280;51013;42.630;23.192;2022-08-01T07:59:30;92260.81;;;19.64;55.48
64602;BME280;51013;42.630;23.192;2022-08-01T08:01:57;92311.59;;;19.95;55.62
64602;BME280;51013;42.630;23.192;2022-08-01T08:04:24;92323.78;;;19.96;54.67
64602;BME280;51013;42.630;23.192;2022-08-01T08:06:52;92288.91;;;19.79;57.05
64602;BME280;51013;42.630;23.192;2022-08-01T08:09:20;92257.09;;;19.54;54.92
64602;BME280;51013;42.630;23.192;2022-08-01T08:11:49;92320.63;;;20.05;55.84
64602;BME280;51013;42.630;23.192;2022-08-01T08:14:16;92258.09;;;19.75;52.41
64602;BME280;51013;42.630;23.192;2022-08-01T08:16:44;92320.56;;;20.12;53.61
64602;BME280;51013;42.630;23.192;2022-08-01T08:19:12;92332.72;;;20.16;55.02
64602;BME280;51013;42.630;23.192;2022-08-01T08:21:39;92319.38;;;20.16;50.43
64602;BME280;51013;42.630;23.192;2022-08-01T08:24:07;92311.34;;;20.20;50.42
64602;BME280;51013;42.630;23.192;2022-08-01T08:26:47;92299.06;;;20.30;51.48
64602;BME280;51013;42.630;23.192;2022-08-01T08:29:17;92274.75;;;20.20;51.31
64602;BME280;51013;42.630;23.192;2022-08-01T08:31:44;92310.91;;;20.59;50.77
64602;BME280;51013;42.630;23.192;2022-08-01T08:34:11;92309.75;;;20.64;51.96
64602;BME280;51013;42.630;23.192;2022-08-01T08:36:38;92310.03;;;20.70;51.92
64602;BME280;51013;42.630;23.192;2022-08-01T08:39:05;92281.44;;;20.70;49.76
64602;BME280;51013;42.630;23.192;2022-08-01T08:41:32;92304.38;;;20.95;49.90
64602;BME280;51013;42.630;23.192;2022-08-01T08:44:00;92291.34;;;21.00;51.09
64602;BME280;51013;42.630;23.192;2022-08-01T08:46:29;92305.09;;;21.26;50.87
64602;BME280;51013;42.630;23.192;2022-08-01T08:48:58;92116.41;;;20.11;47.79
64602;BME280;51013;42.630;23.192;2022-08-01T08:51:26;92261.69;;;21.18;48.11
64602;BME280;51013;42.630;23.192;2022-08-01T08:53:55;92225.56;;;21.10;48.65
64602;BME280;51013;42.630;23.192;2022-08-01T08:56:23;92194.97;;;20.91;51.01
64602;BME280;51013;42.630;23.192;2022-08-01T08:58:56;92294.22;;;21.64;47.87
64602;BME280;51013;42.630;23.192;2022-08-01T09:01:23;92296.59;;;21.58;48.59
64602;BME280;51013;42.630;23.192;2022-08-01T09:03:53;92233.69;;;21.03;49.22
64602;BME280;51013;42.630;23.192;2022-08-01T09:06:21;92178.41;;;20.46;49.76
64602;BME280;51013;42.630;23.192;2022-08-01T09:08:48;92247.53;;;20.94;51.70
64602;BME280;51013;42.630;23.192;2022-08-01T09:11:15;92241.34;;;21.01;49.95
64602;BME280;51013;42.630;23.192;2022-08-01T09:14:01;92276.75;;;21.32;49.67
64602;BME280;51013;42.630;23.192;2022-08-01T09:16:28;92281.84;;;21.50;47.28
64602;BME280;51013;42.630;23.192;2022-08-01T09:19:08;92275.47;;;21.68;48.60
64602;BME280;51013;42.630;23.192;2022-08-01T09:21:35;92275.84;;;21.90;51.99
64602;BME280;51013;42.630;23.192;2022-08-01T09:24:03;92271.25;;;21.90;51.62
64602;BME280;51013;42.630;23.192;2022-08-01T09:26:33;92292.94;;;21.96;49.49
64602;BME280;51013;42.630;23.192;2022-08-01T09:29:03;92291.00;;;21.96;46.86
64602;BME280;51013;42.630;23.192;2022-08-01T09:31:40;92207.97;;;21.36;49.72
64602;BME280;51013;42.630;23.192;2022-08-01T09:34:08;92298.63;;;21.98;49.78
64602;BME280;51013;42.630;23.192;2022-08-01T09:36:49;92282.75;;;21.87;50.05
64602;BME280;51013;42.630;23.192;2022-08-01T09:39:20;92234.69;;;21.64;51.04
64602;BME280;51013;42.630;23.192;2022-08-01T09:41:48;92214.16;;;21.57;49.57
64602;BME280;51013;42.630;23.192;2022-08-01T09:44:17;92272.78;;;22.11;46.88
64602;BME280;51013;42.630;23.192;2022-08-01T09:46:52;92242.72;;;22.04;48.35
64602;BME280;51013;42.630;23.192;2022-08-01T09:49:31;92296.69;;;22.42;47.33
64602;BME280;51013;42.630;23.192;2022-08-01T09:52:09;92295.22;;;22.17;46.77
64602;BME280;51013;42.630;23.192;2022-08-01T09:54:36;92272.59;;;22.02;48.29
64602;BME280;51013;42.630;23.192;2022-08-01T09:57:12;92289.84;;;22.41;49.03
64602;BME280;51013;42.630;23.192;2022-08-01T09:59:40;92280.28;;;22.60;48.11
64602;BME280;51013;42.630;23.192;2022-08-01T10:02:09;92264.16;;;22.64;46.11
64602;BME280;51013;42.630;23.192;2022-08-01T10:04:47;92213.69;;;22.26;45.07
64602;BME280;51013;42.630;23.192;2022-08-01T10:07:15;92141.19;;;21.60;46.25
64602;BME280;51013;42.630;23.192;2022-08-01T10:09:43;92268.63;;;22.30;44.64
64602;BME280;51013;42.630;23.192;2022-08-01T10:12:12;92278.84;;;22.55;47.13
64602;BME280;51013;42.630;23.192;2022-08-01T10:14:39;92282.88;;;22.84;47.62
64602;BME280;51013;42.630;23.192;2022-08-01T10:17:09;92237.41;;;22.80;46.11
64602;BME280;51013;42.630;23.192;2022-08-01T10:19:39;92218.88;;;22.89;44.76
64602;BME280;51013;42.630;23.192;2022-08-01T10:22:09;92221.25;;;23.04;45.03
64602;BME280;51013;42.630;23.192;2022-08-01T10:24:38;92257.44;;;23.28;44.98
64602;BME280;51013;42.630;23.192;2022-08-01T10:27:07;92258.75;;;23.04;46.33
64602;BME280;51013;42.630;23.192;2022-08-01T10:29:36;92269.63;;;23.13;46.37
64602;BME280;51013;42.630;23.192;2022-08-01T10:32:05;92261.09;;;23.18;46.96
64602;BME280;51013;42.630;23.192;2022-08-01T10:34:35;92232.31;;;23.22;47.72
64602;BME280;51013;42.630;23.192;2022-08-01T10:37:03;92256.91;;;23.50;45.28
64602;BME280;51013;42.630;23.192;2022-08-01T10:39:47;92215.72;;;23.11;44.15
64602;BME280;51013;42.630;23.192;2022-08-01T10:42:20;92240.34;;;23.38;46.03
64602;BME280;51013;42.630;23.192;2022-08-01T10:44:48;92262.03;;;23.60;45.89
64602;BME280;51013;42.630;23.192;2022-08-01T10:47:18;92202.25;;;23.14;45.43
64602;BME280;51013;42.630;23.192;2022-08-01T10:49:51;92249.38;;;23.45;45.83
64602;BME280;51013;42.630;23.192;2022-08-01T10:52:20;92269.56;;;23.49;45.11
64602;BME280;51013;42.630;23.192;2022-08-01T10:54:48;92224.59;;;23.24;45.15
64602;BME280;51013;42.630;23.192;2022-08-01T10:57:41;92263.44;;;23.49;47.65
64602;BME280;51013;42.630;23.192;2022-08-01T11:00:09;92261.16;;;23.64;43.77
64602;BME280;51013;42.630;23.192;2022-08-01T11:02:36;92257.28;;;23.97;43.50
64602;BME280;51013;42.630;23.192;2022-08-01T11:05:09;92241.56;;;24.12;41.16
64602;BME280;51013;42.630;23.192;2022-08-01T11:07:43;92220.91;;;24.26;46.26
64602;BME280;51013;42.630;23.192;2022-08-01T11:10:21;92244.66;;;24.40;43.05
64602;BME280;51013;42.630;23.192;2022-08-01T11:12:49;92256.97;;;24.25;42.27
64602;BME280;51013;42.630;23.192;2022-08-01T11:15:26;92256.41;;;24.17;42.72
64602;BME280;51013;42.630;23.192;2022-08-01T11:17:55;92251.84;;;24.43;42.32
64602;BME280;51013;42.630;23.192;2022-08-01T11:20:24;92234.84;;;24.63;41.20
64602;BME280;51013;42.630;23.192;2022-08-01T11:23:18;92247.34;;;24.95;43.20
64602;BME280;51013;42.630;23.192;2022-08-01T11:29:12;92237.34;;;24.83;42.89
64602;BME280;51013;42.630;23.192;2022-08-01T11:31:39;92244.75;;;24.91;43.16
64602;BME280;51013;42.630;23.192;2022-08-01T11:34:06;92211.56;;;24.72;43.98
64602;BME280;51013;42.630;23.192;2022-08-01T11:36:34;92247.78;;;24.93;42.71
64602;BME280;51013;42.630;23.192;2022-08-01T11:39:12;92241.97;;;25.08;43.10
64602;BME280;51013;42.630;23.192;2022-08-01T11:41:41;92235.97;;;24.91;42.68
64602;BME280;51013;42.630;23.192;2022-08-01T11:44:10;92151.47;;;23.86;41.57
64602;BME280;51013;42.630;23.192;2022-08-01T11:46:53;92236.06;;;24.45;43.69
64602;BME280;51013;42.630;23.192;2022-08-01T11:49:30;92247.97;;;24.31;42.97
64602;BME280;51013;42.630;23.192;2022-08-01T11:52:03;92194.16;;;24.22;44.84
64602;BME280;51013;42.630;23.192;2022-08-01T11:54:33;92215.63;;;24.64;42.15
64602;BME280;51013;42.630;23.192;2022-08-01T11:57:04;92190.75;;;24.34;43.07
64602;BME280;51013;42.630;23.192;2022-08-01T11:59:37;92215.22;;;24.78;40.89
64602;BME280;51013;42.630;23.192;2022-08-01T12:02:15;92193.81;;;24.75;41.09
64602;BME280;51013;42.630;23.192;2022-08-01T12:04:53;92209.94;;;25.26;39.54
64602;BME280;51013;42.630;23.192;2022-08-01T12:07:20;92216.94;;;25.24;40.19
64602;BME280;51013;42.630;23.192;2022-08-01T12:09:48;92237.16;;;25.76;39.55
64602;BME280;51013;42.630;23.192;2022-08-01T12:12:22;92229.38;;;26.04;38.95
64602;BME280;51013;42.630;23.192;2022-08-01T12:14:53;92160.13;;;25.34;37.71
64602;BME280;51013;42.630;23.192;2022-08-01T12:17:35;92234.56;;;25.85;39.85
64602;BME280;51013;42.630;23.192;2022-08-01T12:20:05;92202.94;;;25.76;41.31
64602;BME280;51013;42.630;23.192;2022-08-01T12:22:32;92237.06;;;26.36;41.63
64602;BME280;51013;42.630;23.192;2022-08-01T12:25:05;92234.28;;;26.49;40.07
64602;BME280;51013;42.630;23.192;2022-08-01T12:27:34;92175.53;;;26.04;38.91
64602;BME280;51013;42.630;23.192;2022-08-01T12:30:05;92178.78;;;26.52;40.48
64602;BME280;51013;42.630;23.192;2022-08-01T12:32:36;92230.09;;;27.42;37.58
64602;BME280;51013;42.630;23.192;2022-08-01T12:35:06;92233.50;;;27.92;37.85
64602;BME280;51013;42.630;23.192;2022-08-01T12:37:35;92219.06;;;27.77;36.09
64602;BME280;51013;42.630;23.192;2022-08-01T12:40:10;92226.19;;;28.02;38.52
64602;BME280;51013;42.630;23.192;2022-08-01T12:42:38;92193.00;;;28.20;35.86
64602;BME280;51013;42.630;23.192;2022-08-01T12:45:08;92217.94;;;28.85;36.79
64602;BME280;51013;42.630;23.192;2022-08-01T12:47:38;92172.88;;;28.91;32.51
64602;BME280;51013;42.630;23.192;2022-08-01T12:50:06;92216.25;;;29.40;32.81
64602;BME280;51013;42.630;23.192;2022-08-01T12:52:37;92199.97;;;29.15;32.29
64602;BME280;51013;42.630;23.192;2022-08-01T12:55:08;92182.31;;;28.96;32.56
64602;BME280;51013;42.630;23.192;2022-08-01T12:57:37;92197.09;;;29.19;32.37
64602;BME280;51013;42.630;23.192;2022-08-01T13:00:14;92217.75;;;29.41;32.60
64602;BME280;51013;42.630;23.192;2022-08-01T13:02:43;92170.78;;;28.95;33.40
64602;BME280;51013;42.630;23.192;2022-08-01T13:05:11;92201.56;;;28.89;31.25
64602;BME280;51013;42.630;23.192;2022-08-01T13:07:41;92200.91;;;29.12;33.11